Terminal Aerodrome Forecast
Issued by NWS Cleveland, OH

Home | Current Version | Previous Version | Graphics & Text | Print | Product List | Glossary On
Versions: 1 2 3 4 5 6 7 8 9 10 11 12 13 14 15 16 17
000
FTUS41 KCLE 080500
TAFCAK
TAF
KCAK 080529Z 0806/0906 20008KT P6SM SCT012 BKN100
      TEMPO 0806/0808 5SM BR BKN012
     FM080800 22008KT 4SM BR SCT008 OVC012
     FM081600 22014G22KT P6SM VCTS SCT015 OVC025CB
     FM082000 23014G22KT P6SM OVC035
     FM090000 25008KT P6SM VCTS SCT025 OVC035CB
     FM090300 26009KT P6SM SCT100 BKN250=

USA.gov is the U.S. government's official web portal to all federal, state and local government web resources and services.